Huntington, Texas
Current Conditions -  °F | °C
As of 3:53 AM on Wednesday 22 Oct 2014 (Local Time) from KLFK Reporting Station
Haze Haze  
Wind Chill: 62°   Ceiling: Unl
Heat Index: 62°   Visibility: 6mi
Dew Point: 57°   Wind: 3mph
Humidity: 84%   Direction: 40°NE
Pressure: 30.06"   Gusts: NA
Location:  31.28°N, 94.58°W
Report Text: KLFK 220853Z AUTO 04003KT 6SM HZ CLR 17/14 A3006 RMK AO2 SLP174 T01670139 50001
Loading
Personal Weather Stations






























Interactive Weather Map
Tropical Storm Tracking
New forecast layout! Learn more

10-Day Weather Forecast

Advertisements
Track Severe Weather on mobile